Time;durP1;ratioP1;P1;durP2;ratioP2;P2;SDS_P1;SDS_P2;PMS_P1;PMS_P2;Temp;Humidity;BMP_temperature;BMP_pressure;BME280_temperature;BME280_humidity;BME280_pressure;Samples;Min_cycle;Max_cycle;Signal;HPM_P1;HPM_P2
2021/11/30 00:01:44;;;;;;;91.85;36.55;;;2.60;99.90;;;;;;4939818;28;20126;-70
2021/11/30 00:04:16;;;;;;;109.03;39.50;;;2.60;99.90;;;;;;4944797;29;20051;-70
2021/11/30 00:06:46;;;;;;;101.03;37.42;;;2.60;99.90;;;;;;4954932;28;20054;-71
2021/11/30 00:12:03;;;;;;;94.68;38.55;;;2.60;99.90;;;;;;4978937;28;20419;-70
2021/11/30 00:14:30;;;;;;;81.80;33.42;;;2.60;99.90;;;;;;4966338;28;20273;-68
2021/11/30 00:16:58;;;;;;;83.97;34.83;;;2.60;99.90;;;;;;4964304;28;20267;-70
2021/11/30 00:19:25;;;;;;;95.65;39.65;;;2.60;99.90;;;;;;4963132;28;20055;-69
2021/11/30 00:21:52;;;;;;;87.68;37.33;;;2.70;99.90;;;;;;4947279;28;20055;-71
2021/11/30 00:24:21;;;;;;;81.82;31.90;;;2.60;99.90;;;;;;4963992;28;20062;-72
2021/11/30 00:26:48;;;;;;;79.63;33.08;;;2.70;99.90;;;;;;4946946;28;20173;-72
2021/11/30 00:29:15;;;;;;;56.55;26.60;;;2.70;99.90;;;;;;4963802;28;20530;-73
2021/11/30 00:31:42;;;;;;;65.78;30.35;;;2.60;99.90;;;;;;4966020;28;20055;-73
2021/11/30 00:34:08;;;;;;;74.13;31.80;;;2.60;99.90;;;;;;4965208;28;20054;-72
2021/11/30 00:36:35;;;;;;;89.78;37.00;;;2.70;99.90;;;;;;4946776;28;20404;-71
2021/11/30 00:39:03;;;;;;;82.72;35.13;;;2.70;99.90;;;;;;4962218;28;20675;-72
2021/11/30 00:41:31;;;;;;;88.63;36.03;;;2.70;99.90;;;;;;4961564;28;20046;-74
2021/11/30 00:43:58;;;;;;;106.25;43.83;;;2.80;99.90;;;;;;4947833;28;20415;-73
2021/11/30 00:46:43;;;;;;;106.57;43.63;;;2.80;99.90;;;;;;4963237;28;20149;-73
2021/11/30 00:49:10;;;;;;;;;;;2.80;99.90;;;;;;4945039;28;20047;-73
2021/11/30 00:51:40;;;;;;;88.75;39.90;;;2.80;99.90;;;;;;4960485;28;19930;-75
2021/11/30 00:54:08;;;;;;;86.82;36.53;;;2.80;99.90;;;;;;4965263;28;20120;-76
2021/11/30 00:56:39;;;;;;;82.05;36.67;;;2.80;99.90;;;;;;4963157;28;20046;-75
2021/11/30 00:59:07;;;;;;;81.78;37.08;;;2.80;99.90;;;;;;4978076;28;20322;-75
2021/11/30 01:01:36;;;;;;;75.93;35.47;;;2.90;99.90;;;;;;4945862;28;20054;-75
2021/11/30 01:04:03;;;;;;;85.40;37.90;;;2.80;99.90;;;;;;4963266;28;20054;-75
2021/11/30 01:06:30;;;;;;;74.88;35.38;;;2.90;99.90;;;;;;4963383;28;20086;-74
2021/11/30 01:08:57;;;;;;;75.03;34.63;;;2.80;99.90;;;;;;4945391;28;20066;-73
2021/11/30 01:11:24;;;;;;;86.95;37.45;;;2.90;99.90;;;;;;4945047;28;20051;-75
2021/11/30 01:13:51;;;;;;;73.55;35.22;;;2.90;99.90;;;;;;4964007;28;20050;-75
2021/11/30 01:16:18;;;;;;;85.53;39.35;;;2.90;99.90;;;;;;4963321;28;20515;-74
2021/11/30 01:18:45;;;;;;;72.85;35.33;;;2.90;99.90;;;;;;4963390;28;20245;-74
2021/11/30 01:21:12;;;;;;;66.00;30.80;;;2.90;99.90;;;;;;4961576;28;20042;-75
2021/11/30 01:23:39;;;;;;;67.20;35.83;;;2.90;99.90;;;;;;4947018;28;20055;-75
2021/11/30 01:26:06;;;;;;;60.90;32.58;;;2.90;99.90;;;;;;4961278;28;20055;-76
2021/11/30 01:28:34;;;;;;;53.92;29.40;;;2.90;99.90;;;;;;4961097;28;20046;-73
2021/11/30 01:31:01;;;;;;;61.70;32.95;;;2.80;99.90;;;;;;4963633;28;20055;-74
2021/11/30 01:33:29;;;;;;;57.65;33.15;;;2.80;99.90;;;;;;4965322;28;20445;-73
2021/11/30 01:35:59;;;;;;;47.95;26.92;;;2.80;99.90;;;;;;4960083;28;20057;-73
2021/11/30 01:38:35;;;;;;;64.38;33.17;;;2.70;99.90;;;;;;4946020;28;20308;-72
2021/11/30 01:41:15;;;;;;;55.70;30.23;;;2.70;99.90;;;;;;4945821;28;20054;-73
2021/11/30 01:43:43;;;;;;;56.75;31.73;;;2.60;99.90;;;;;;4946986;28;20062;-73
2021/11/30 01:49:14;;;;;;;70.93;33.38;;;2.70;99.90;;;;;;4960309;28;20121;-75
2021/11/30 01:51:41;;;;;;;57.42;32.40;;;2.70;99.90;;;;;;4949990;28;20109;-75
2021/11/30 01:54:08;;;;;;;56.67;26.90;;;2.80;99.90;;;;;;4962601;28;20046;-75
2021/11/30 01:56:35;;;;;;;54.70;29.45;;;2.70;99.90;;;;;;4963947;28;20069;-75
2021/11/30 01:59:03;;;;;;;48.65;26.98;;;2.70;99.90;;;;;;4964477;28;20141;-76
2021/11/30 02:01:30;;;;;;;40.95;23.42;;;2.70;99.90;;;;;;4962216;28;20587;-72
2021/11/30 02:03:58;;;;;;;39.55;21.42;;;2.70;99.90;;;;;;4964157;28;20059;-72
2021/11/30 02:06:25;;;;;;;33.20;19.83;;;2.70;99.90;;;;;;4963176;28;20042;-73
2021/11/30 02:08:52;;;;;;;45.30;25.35;;;2.70;99.90;;;;;;4961233;28;20061;-74
2021/11/30 02:11:19;;;;;;;37.47;20.33;;;2.70;99.90;;;;;;4963096;28;20061;-76
2021/11/30 02:13:46;;;;;;;33.10;20.48;;;2.70;99.90;;;;;;4963384;28;20055;-74
2021/11/30 02:16:16;;;;;;;40.83;20.15;;;2.70;99.90;;;;;;4975060;28;20065;-75
2021/11/30 02:18:44;;;;;;;37.20;20.25;;;2.70;99.90;;;;;;4960386;28;20047;-74
2021/11/30 02:21:12;;;;;;;29.08;17.23;;;2.80;99.90;;;;;;4928943;28;20082;-74
2021/11/30 02:23:53;;;;;;;32.90;17.77;;;2.80;99.90;;;;;;4960760;28;20070;-75
2021/11/30 02:26:19;;;;;;;19.73;15.15;;;2.70;99.90;;;;;;4959879;28;20113;-77
2021/11/30 02:28:50;;;;;;;31.38;18.40;;;2.80;99.90;;;;;;4959500;28;20054;-75
2021/11/30 02:31:20;;;;;;;32.92;20.25;;;2.80;99.90;;;;;;4959767;28;20061;-73
2021/11/30 02:33:48;;;;;;;36.85;16.92;;;2.80;99.90;;;;;;4945354;28;20047;-75
2021/11/30 02:36:35;;;;;;;32.83;17.00;;;2.80;99.90;;;;;;4962210;28;20058;-74
2021/11/30 02:39:06;;;;;;;26.48;16.02;;;2.80;99.90;;;;;;4964814;28;20109;-72
2021/11/30 02:41:36;;;;;;;30.58;15.85;;;2.80;99.90;;;;;;4948472;28;20051;-76
2021/11/30 02:44:04;;;;;;;21.20;13.65;;;2.80;99.90;;;;;;4969923;28;20143;-75
2021/11/30 02:46:41;;;;;;;24.08;13.13;;;2.60;99.90;;;;;;4947150;28;20098;-74
2021/11/30 02:49:12;;;;;;;22.58;13.85;;;2.60;99.90;;;;;;4965310;28;20077;-70
2021/11/30 02:51:42;;;;;;;23.25;12.48;;;2.60;99.90;;;;;;4964723;28;20626;-75
2021/11/30 02:54:11;;;;;;;20.33;8.45;;;2.50;99.90;;;;;;4966314;28;20729;-74
2021/11/30 02:56:44;;;;;;;19.45;12.93;;;2.30;99.90;;;;;;4966926;28;20415;-74
2021/11/30 02:59:11;;;;;;;21.27;13.38;;;2.20;99.90;;;;;;4948857;28;20057;-75
2021/11/30 03:01:41;;;;;;;19.58;12.70;;;2.10;99.90;;;;;;4948060;28;20098;-71
2021/11/30 03:04:13;;;;;;;16.90;10.05;;;2.00;99.90;;;;;;4967414;28;20082;-74
2021/11/30 03:06:41;;;;;;;12.80;8.00;;;2.00;99.90;;;;;;4965473;28;20057;-75
2021/11/30 03:09:09;;;;;;;12.82;9.30;;;1.90;99.90;;;;;;4963947;28;20054;-75
2021/11/30 03:11:36;;;;;;;13.20;9.60;;;1.80;99.90;;;;;;4948963;28;20078;-74
2021/11/30 03:14:04;;;;;;;12.55;9.60;;;1.60;99.90;;;;;;4949819;28;20109;-73
2021/11/30 03:16:33;;;;;;;19.38;8.13;;;1.50;99.90;;;;;;4947822;28;20050;-73
2021/11/30 03:19:01;;;;;;;20.35;8.98;;;1.30;99.90;;;;;;4948538;28;20051;-73
2021/11/30 03:21:28;;;;;;;15.27;9.50;;;1.30;99.90;;;;;;4956926;28;20042;-72
2021/11/30 03:23:55;;;;;;;22.50;12.30;;;1.20;99.90;;;;;;4948135;28;20359;-72
2021/11/30 03:26:22;;;;;;;16.73;10.10;;;1.20;99.90;;;;;;4964086;28;20467;-74
2021/11/30 03:28:50;;;;;;;14.18;8.57;;;1.10;99.90;;;;;;4964467;28;20265;-71
2021/11/30 03:31:34;;;;;;;21.65;11.75;;;1.10;99.90;;;;;;4963730;28;20057;-71
2021/11/30 03:34:08;;;;;;;25.63;13.57;;;1.10;99.90;;;;;;4965268;28;20559;-69
2021/11/30 03:36:36;;;;;;;26.73;11.82;;;1.10;99.90;;;;;;4961195;28;20097;-68
2021/11/30 03:39:08;;;;;;;16.33;10.10;;;1.00;99.90;;;;;;4963074;28;20101;-69
2021/11/30 03:41:35;;;;;;;17.75;9.77;;;1.00;99.90;;;;;;4964798;28;20062;-69
2021/11/30 03:44:04;;;;;;;21.02;10.95;;;1.00;99.90;;;;;;4948819;28;20059;-70
2021/11/30 03:46:32;;;;;;;17.77;11.20;;;0.90;99.90;;;;;;4967751;28;20694;-69
2021/11/30 03:49:00;;;;;;;14.32;9.73;;;0.90;99.90;;;;;;4964461;28;20504;-68
2021/11/30 03:51:28;;;;;;;22.38;11.30;;;0.90;99.90;;;;;;4962301;28;20066;-68
2021/11/30 03:53:54;;;;;;;26.02;11.40;;;0.90;99.90;;;;;;4964482;28;20339;-68
2021/11/30 03:56:22;;;;;;;26.95;14.63;;;0.80;99.90;;;;;;4966231;28;20051;-69
2021/11/30 03:58:48;;;;;;;30.55;13.95;;;0.80;99.90;;;;;;4948383;28;20047;-70
2021/11/30 04:01:15;;;;;;;33.90;15.90;;;0.80;99.90;;;;;;4965174;28;20047;-68
2021/11/30 04:03:43;;;;;;;33.65;17.00;;;0.80;99.90;;;;;;4968815;28;20057;-69
2021/11/30 04:06:10;;;;;;;33.85;17.13;;;0.80;99.90;;;;;;4964678;28;20057;-71
2021/11/30 04:08:39;;;;;;;29.30;17.30;;;0.80;99.90;;;;;;4964076;28;20057;-70
2021/11/30 04:11:06;;;;;;;30.27;15.27;;;0.80;99.90;;;;;;4965475;28;20051;-70
2021/11/30 04:13:33;;;;;;;31.75;14.05;;;0.80;99.90;;;;;;4966219;28;20063;-69
2021/11/30 04:16:00;;;;;;;29.58;15.30;;;0.80;99.90;;;;;;4965107;28;20440;-70
2021/11/30 04:18:28;;;;;;;39.25;18.50;;;0.80;99.90;;;;;;4963591;28;20155;-69
2021/11/30 04:20:55;;;;;;;40.35;17.73;;;0.80;99.90;;;;;;4958897;28;20055;-70
2021/11/30 04:23:24;;;;;;;37.15;18.83;;;0.80;99.90;;;;;;4963155;28;20047;-71
2021/11/30 04:25:51;;;;;;;44.25;20.35;;;0.80;99.90;;;;;;4965125;28;20058;-70
2021/11/30 04:28:18;;;;;;;44.42;21.02;;;0.80;99.90;;;;;;4945194;28;20133;-69
2021/11/30 04:30:45;;;;;;;50.45;24.13;;;0.80;99.90;;;;;;4963261;28;20042;-67
2021/11/30 04:33:12;;;;;;;46.53;22.75;;;0.80;99.90;;;;;;4948123;28;20058;-71
2021/11/30 04:35:39;;;;;;;34.22;16.73;;;0.80;99.90;;;;;;4965208;28;20134;-70
2021/11/30 04:38:06;;;;;;;37.75;18.60;;;0.80;99.90;;;;;;4946437;28;20069;-71
2021/11/30 04:40:33;;;;;;;40.80;19.88;;;0.80;99.90;;;;;;4966945;28;20065;-70
2021/11/30 04:43:01;;;;;;;30.88;16.13;;;0.80;99.90;;;;;;4947375;28;20047;-70
2021/11/30 04:45:38;;;;;;;36.72;18.48;;;0.80;99.90;;;;;;4965827;28;20051;-71
2021/11/30 04:48:05;;;;;;;34.95;16.77;;;0.80;99.90;;;;;;4963580;28;20083;-70
2021/11/30 04:50:36;;;;;;;31.40;16.33;;;0.90;99.90;;;;;;4963540;28;20051;-74
2021/11/30 04:53:05;;;;;;;38.78;20.25;;;0.90;99.90;;;;;;4977781;28;20504;-71
2021/11/30 04:55:32;;;;;;;42.33;18.10;;;0.90;99.90;;;;;;4944652;28;20062;-70
2021/11/30 04:58:02;;;;;;;33.95;18.63;;;0.90;99.90;;;;;;4926883;29;20630;-73
2021/11/30 05:00:31;;;;;;;25.58;14.32;;;0.90;99.90;;;;;;4944391;28;20130;-71
2021/11/30 05:02:58;;;;;;;32.95;17.33;;;1.00;99.90;;;;;;4946170;28;20162;-71
2021/11/30 05:05:25;;;;;;;31.90;16.13;;;1.00;99.90;;;;;;4962745;28;20085;-71
2021/11/30 05:07:52;;;;;;;23.48;11.93;;;1.00;99.90;;;;;;4961718;28;20058;-72
2021/11/30 05:10:19;;;;;;;27.30;14.63;;;1.00;99.90;;;;;;4963297;28;20435;-70
2021/11/30 05:12:47;;;;;;;25.10;14.25;;;1.00;99.90;;;;;;4966110;28;20054;-71
2021/11/30 05:15:15;;;;;;;27.98;13.98;;;1.10;99.90;;;;;;4965305;28;20483;-72
2021/11/30 05:17:42;;;;;;;26.20;13.18;;;1.10;99.90;;;;;;4962333;28;20587;-72
2021/11/30 05:20:11;;;;;;;18.63;10.57;;;1.10;99.90;;;;;;4958711;28;20057;-73
2021/11/30 05:22:38;;;;;;;19.30;12.13;;;1.20;99.90;;;;;;4945253;28;20039;-72
2021/11/30 05:25:23;;;;;;;16.90;9.70;;;1.30;99.90;;;;;;4964549;28;20551;-73
2021/11/30 05:27:51;;;;;;;17.52;10.77;;;1.40;99.90;;;;;;4962071;28;20057;-71
2021/11/30 05:30:20;;;;;;;22.92;10.35;;;1.40;99.90;;;;;;4945130;28;20051;-72
2021/11/30 05:32:49;;;;;;;15.50;9.80;;;1.40;99.90;;;;;;4946405;28;20365;-72
2021/11/30 05:35:17;;;;;;;15.63;9.70;;;1.50;99.90;;;;;;4928062;28;20528;-73
2021/11/30 05:37:44;;;;;;;10.43;6.50;;;1.60;99.90;;;;;;4961559;28;20042;-73
2021/11/30 05:40:12;;;;;;;13.45;8.57;;;1.70;99.90;;;;;;4961294;28;20050;-72
2021/11/30 05:42:38;;;;;;;14.15;8.65;;;1.70;99.90;;;;;;4960185;28;20057;-72
2021/11/30 05:45:06;;;;;;;12.30;7.97;;;1.70;99.90;;;;;;4961894;28;20357;-71
2021/11/30 05:47:33;;;;;;;14.02;8.35;;;1.80;99.90;;;;;;4958299;28;20602;-70
2021/11/30 05:50:00;;;;;;;9.57;6.72;;;1.80;99.90;;;;;;4961056;28;20043;-72
2021/11/30 05:52:27;;;;;;;14.20;8.10;;;1.80;99.90;;;;;;4960934;28;20047;-73
2021/11/30 05:54:54;;;;;;;12.52;7.85;;;1.80;99.90;;;;;;4961867;28;20099;-72
2021/11/30 05:57:22;;;;;;;16.10;9.88;;;1.80;99.90;;;;;;4944381;28;20065;-71
2021/11/30 05:59:50;;;;;;;11.63;8.27;;;1.90;99.90;;;;;;4976073;28;20065;-73
2021/11/30 06:02:19;;;;;;;13.55;8.32;;;1.90;99.90;;;;;;4946274;28;20050;-72
2021/11/30 06:04:47;;;;;;;15.75;10.00;;;2.00;99.90;;;;;;4964159;28;20082;-72
2021/11/30 06:07:22;;;;;;;19.05;11.80;;;2.00;99.90;;;;;;4945034;28;20046;-72
2021/11/30 06:09:53;;;;;;;14.68;10.30;;;2.10;99.90;;;;;;4946467;28;20047;-72
2021/11/30 06:12:22;;;;;;;13.23;9.40;;;2.10;99.90;;;;;;4944952;28;20062;-71
2021/11/30 06:15:07;;;;;;;11.10;6.80;;;2.20;99.90;;;;;;4949742;28;20110;-69
2021/11/30 06:17:39;;;;;;;9.98;7.00;;;2.20;99.90;;;;;;4941739;28;20105;-72
2021/11/30 06:20:17;;;;;;;9.73;7.28;;;2.20;99.90;;;;;;4932222;29;20077;-71
2021/11/30 06:22:50;;;;;;;10.23;7.57;;;2.30;99.90;;;;;;4948039;28;20130;-69
2021/11/30 06:25:21;;;;;;;10.48;7.93;;;2.30;99.90;;;;;;4951665;28;20057;-72
2021/11/30 06:27:57;;;;;;;11.55;7.57;;;2.30;99.90;;;;;;4945514;28;20043;-70
2021/11/30 06:30:43;;;;;;;8.70;6.00;;;2.40;99.90;;;;;;4948565;28;20038;-71
2021/11/30 06:33:22;;;;;;;11.55;8.23;;;2.40;99.90;;;;;;4967096;28;20070;-71
2021/11/30 06:35:54;;;;;;;13.52;9.25;;;2.40;99.90;;;;;;4922829;28;20409;-70
2021/11/30 06:38:43;;;;;;;10.82;7.25;;;2.50;99.90;;;;;;4948721;28;20042;-72
2021/11/30 06:41:34;;;;;;;12.02;8.65;;;2.50;99.90;;;;;;4932235;28;20043;-71
2021/11/30 06:44:07;;;;;;;8.77;6.38;;;2.50;99.90;;;;;;4953313;28;20049;-73
2021/11/30 06:46:46;;;;;;;12.02;8.85;;;2.60;99.90;;;;;;4943579;28;20241;-71
2021/11/30 06:50:15;;;;;;;9.93;7.63;;;2.70;99.90;;;;;;4949521;28;20093;-71
2021/11/30 06:53:11;;;;;;;13.55;9.05;;;2.70;99.90;;;;;;4969217;28;20486;-70
2021/11/30 06:55:45;;;;;;;9.10;7.35;;;2.80;99.90;;;;;;4932089;28;20066;-73
2021/11/30 06:58:21;;;;;;;10.13;7.20;;;2.80;99.90;;;;;;4949857;28;20631;-71
2021/11/30 07:01:05;;;;;;;10.30;7.15;;;2.80;99.90;;;;;;4950136;28;20255;-71
2021/11/30 07:03:37;;;;;;;14.95;7.43;;;2.90;99.90;;;;;;4953364;28;20070;-74
2021/11/30 07:10:11;;;;;;;8.77;6.43;;;3.00;99.90;;;;;;4962520;28;20068;-69
2021/11/30 07:13:12;;;;;;;11.68;8.07;;;3.00;99.90;;;;;;4952508;28;20177;-73
2021/11/30 07:16:03;;;;;;;10.55;7.28;;;3.10;99.90;;;;;;4945908;28;20522;-71
2021/11/30 07:18:52;;;;;;;16.63;10.70;;;3.20;99.90;;;;;;4946658;28;20064;-70
2021/11/30 07:21:44;;;;;;;11.38;8.52;;;3.20;99.90;;;;;;4931085;28;20043;-68
2021/11/30 07:24:25;;;;;;;14.00;9.50;;;3.30;99.90;;;;;;4953687;28;20131;-70
2021/11/30 07:26:59;;;;;;;15.75;10.55;;;3.30;99.90;;;;;;4952068;28;20039;-73
2021/11/30 07:29:45;;;;;;;11.52;8.27;;;3.30;99.90;;;;;;4989232;28;20324;-70
2021/11/30 07:32:20;;;;;;;16.08;11.02;;;3.40;99.90;;;;;;4948213;28;20137;-70
2021/11/30 07:37:48;;;;;;;13.30;9.77;;;3.50;99.90;;;;;;4954228;28;20039;-70
2021/11/30 07:40:25;;;;;;;13.77;9.95;;;3.60;99.90;;;;;;4955144;28;20055;-70
2021/11/30 07:43:40;;;;;;;9.30;7.43;;;3.60;99.90;;;;;;4961710;28;20347;-70
2021/11/30 07:46:16;;;;;;;13.27;10.23;;;3.70;99.90;;;;;;4952511;28;20054;-71
2021/11/30 07:48:53;;;;;;;11.00;9.18;;;3.70;99.90;;;;;;4936064;29;20452;-69
2021/11/30 07:51:26;;;;;;;9.13;7.07;;;3.80;99.90;;;;;;4958465;28;20102;-72
2021/11/30 07:54:45;;;;;;;10.32;7.70;;;3.90;99.90;;;;;;4960039;28;20038;-70
2021/11/30 07:57:29;;;;;;;6.70;5.13;;;3.90;99.90;;;;;;4954827;28;20117;-73
2021/11/30 08:00:16;;;;;;;8.05;6.35;;;3.90;99.90;;;;;;4978089;28;20059;-69
2021/11/30 08:02:47;;;;;;;8.75;6.85;;;4.00;99.90;;;;;;4948778;28;20167;-69
2021/11/30 08:05:26;;;;;;;10.63;7.97;;;4.10;99.90;;;;;;4979395;28;20050;-70
2021/11/30 08:07:59;;;;;;;12.68;9.75;;;4.10;99.90;;;;;;4951413;28;20071;-71
2021/11/30 08:10:43;;;;;;;15.63;12.13;;;4.20;99.90;;;;;;4982273;28;20094;-72
2021/11/30 08:13:11;;;;;;;16.58;12.02;;;4.20;99.90;;;;;;4951622;29;20356;-70
2021/11/30 08:15:43;;;;;;;14.18;10.95;;;4.20;99.90;;;;;;4948517;28;20199;-72
2021/11/30 08:18:10;;;;;;;20.05;14.02;;;4.30;99.90;;;;;;4947679;29;20047;-71
2021/11/30 08:20:41;;;;;;;15.07;10.60;;;4.30;99.90;;;;;;4945808;28;20719;-72
2021/11/30 08:23:08;;;;;;;15.85;11.60;;;4.40;99.90;;;;;;4947512;29;20049;-72
2021/11/30 08:25:36;;;;;;;14.30;11.77;;;4.50;99.90;;;;;;4947038;28;20450;-73
2021/11/30 08:28:04;;;;;;;19.40;14.32;;;4.50;99.90;;;;;;4939187;28;20053;-72
2021/11/30 08:30:44;;;;;;;13.82;9.93;;;4.50;99.90;;;;;;4979310;28;20054;-72
2021/11/30 08:33:12;;;;;;;14.85;10.57;;;4.50;99.90;;;;;;4963072;28;20035;-69
2021/11/30 08:35:39;;;;;;;16.27;11.65;;;4.60;99.90;;;;;;4965331;28;20047;-72
2021/11/30 08:38:06;;;;;;;12.52;9.93;;;4.60;99.90;;;;;;4960987;28;20047;-73
2021/11/30 08:40:34;;;;;;;16.45;12.50;;;4.60;99.90;;;;;;4963502;28;20047;-70
2021/11/30 08:43:02;;;;;;;14.80;10.68;;;4.70;99.90;;;;;;4963026;28;20101;-73
2021/11/30 08:45:30;;;;;;;11.63;8.85;;;4.70;99.90;;;;;;4964377;28;20114;-71
2021/11/30 08:47:57;;;;;;;14.20;8.98;;;4.70;99.90;;;;;;4947887;28;20485;-70
2021/11/30 08:50:25;;;;;;;13.77;9.98;;;4.80;99.90;;;;;;4964006;28;20054;-72
2021/11/30 08:52:52;;;;;;;13.77;9.68;;;4.80;99.90;;;;;;4948193;28;20047;-72
2021/11/30 08:55:20;;;;;;;12.10;8.82;;;4.80;99.90;;;;;;4979781;28;20171;-71
2021/11/30 08:57:47;;;;;;;13.05;9.30;;;4.80;99.90;;;;;;4959744;28;20137;-71
2021/11/30 09:00:24;;;;;;;16.15;10.85;;;4.90;99.90;;;;;;4963045;28;20460;-70
2021/11/30 09:02:52;;;;;;;14.63;10.10;;;4.90;99.90;;;;;;4981816;28;20415;-73
2021/11/30 09:05:21;;;;;;;15.48;10.00;;;4.90;99.90;;;;;;4963915;28;20524;-71
2021/11/30 09:07:49;;;;;;;15.25;10.90;;;4.90;99.90;;;;;;4960738;28;20451;-70
2021/11/30 09:10:18;;;;;;;14.75;10.23;;;5.00;99.90;;;;;;4979564;28;20096;-71
2021/11/30 09:12:45;;;;;;;16.05;11.77;;;5.00;99.90;;;;;;4963071;28;20046;-72
2021/11/30 09:15:12;;;;;;;14.30;10.52;;;5.00;99.90;;;;;;4962841;28;20034;-72
2021/11/30 09:17:47;;;;;;;13.90;10.02;;;5.00;99.90;;;;;;4964259;28;20065;-73
2021/11/30 09:20:14;;;;;;;18.15;11.38;;;5.00;99.90;;;;;;4946962;28;20046;-69
2021/11/30 09:22:42;;;;;;;17.75;12.15;;;5.10;99.90;;;;;;4947712;28;20082;-73
2021/11/30 09:25:09;;;;;;;13.30;9.95;;;5.10;99.90;;;;;;4947086;28;20500;-69
2021/11/30 09:27:37;;;;;;;15.10;10.05;;;5.10;99.90;;;;;;4946049;28;20401;-73
2021/11/30 09:30:07;;;;;;;15.75;11.57;;;5.10;99.90;;;;;;4962823;28;20279;-73
2021/11/30 09:32:34;;;;;;;13.55;9.75;;;5.20;99.90;;;;;;4948632;28;20146;-73
2021/11/30 09:35:05;;;;;;;16.23;11.15;;;5.20;99.90;;;;;;4978089;28;20043;-71
2021/11/30 09:37:34;;;;;;;16.30;11.25;;;5.30;99.90;;;;;;4962983;28;20055;-71
2021/11/30 09:40:02;;;;;;;14.35;10.23;;;5.30;99.90;;;;;;4948996;28;20047;-72
2021/11/30 09:42:29;;;;;;;19.90;12.27;;;5.30;99.90;;;;;;4962828;28;20531;-70
2021/11/30 09:44:56;;;;;;;18.83;11.88;;;5.30;99.90;;;;;;4962412;28;20062;-72
2021/11/30 09:47:24;;;;;;;20.67;13.35;;;5.30;99.90;;;;;;4960762;28;20257;-70
2021/11/30 09:49:50;;;;;;;18.40;13.10;;;5.30;99.90;;;;;;4961588;28;20051;-73
2021/11/30 09:52:17;;;;;;;22.45;13.45;;;5.30;99.90;;;;;;4961502;28;20249;-69
2021/11/30 09:54:44;;;;;;;19.42;10.52;;;5.40;99.90;;;;;;4963595;28;20109;-71
2021/11/30 09:57:11;;;;;;;16.63;11.55;;;5.40;99.90;;;;;;4958815;28;20138;-71
2021/11/30 09:59:40;;;;;;;17.83;12.35;;;5.50;99.90;;;;;;4967994;28;20054;-72
2021/11/30 10:02:08;;;;;;;13.35;9.48;;;5.40;99.90;;;;;;4964016;28;20511;-69
2021/11/30 10:04:36;;;;;;;16.02;11.23;;;5.40;99.90;;;;;;4963573;28;20503;-69
2021/11/30 10:07:03;;;;;;;21.67;14.82;;;5.50;99.90;;;;;;4946247;28;20065;-72
2021/11/30 10:09:30;;;;;;;21.77;13.68;;;5.50;99.90;;;;;;4981122;28;20093;-71
2021/11/30 10:12:03;;;;;;;19.15;11.70;;;5.50;99.90;;;;;;4964338;28;20046;-72
2021/11/30 10:14:36;;;;;;;15.70;10.82;;;5.50;99.90;;;;;;4948492;28;20047;-71
2021/11/30 10:17:19;;;;;;;12.63;8.40;;;5.60;99.90;;;;;;4964966;28;20548;-71
2021/11/30 10:19:54;;;;;;;17.75;10.32;;;5.60;99.90;;;;;;4946061;28;20368;-71
2021/11/30 10:22:43;;;;;;;15.23;11.30;;;5.70;99.90;;;;;;4947663;28;20063;-71
2021/11/30 10:25:41;;;;;;;21.60;13.52;;;5.70;99.90;;;;;;4962204;28;20054;-70
2021/11/30 10:28:11;;;;;;;22.38;12.70;;;5.70;99.90;;;;;;4943248;28;20049;-70
2021/11/30 10:30:44;;;;;;;19.35;12.52;;;5.70;99.90;;;;;;4956127;28;20043;-72
2021/11/30 10:33:17;;;;;;;18.17;12.63;;;5.70;99.90;;;;;;4948821;28;20047;-71
2021/11/30 10:35:53;;;;;;;18.25;12.85;;;5.80;99.90;;;;;;4972032;28;20046;-73
2021/11/30 10:38:22;;;;;;;20.60;12.75;;;5.80;99.90;;;;;;4971803;28;20188;-73
2021/11/30 10:40:49;;;;;;;19.98;12.25;;;5.80;99.90;;;;;;4959097;28;20058;-72
2021/11/30 10:43:18;;;;;;;21.55;12.63;;;5.90;99.90;;;;;;4942524;28;20051;-71
2021/11/30 10:45:47;;;;;;;23.30;14.15;;;5.90;99.90;;;;;;4959866;28;20046;-71
2021/11/30 10:48:22;;;;;;;19.10;12.48;;;6.00;99.90;;;;;;4958716;28;20258;-71
2021/11/30 10:50:57;;;;;;;19.15;12.20;;;5.90;99.90;;;;;;4960999;28;20051;-72
2021/11/30 10:53:30;;;;;;;23.23;15.18;;;6.00;99.90;;;;;;4961144;28;20050;-72
2021/11/30 10:56:03;;;;;;;25.75;15.27;;;6.00;99.90;;;;;;4960620;28;20142;-74
2021/11/30 10:58:33;;;;;;;21.88;13.55;;;6.10;99.90;;;;;;4959880;28;20126;-71
2021/11/30 11:01:06;;;;;;;26.33;15.50;;;6.00;99.90;;;;;;4964946;28;20089;-71
2021/11/30 11:03:34;;;;;;;19.10;12.52;;;6.10;99.90;;;;;;4950358;28;20046;-71
2021/11/30 11:08:57;;;;;;;23.55;14.45;;;6.10;99.90;;;;;;4993426;28;20558;-70
2021/11/30 11:11:36;;;;;;;21.08;12.68;;;6.20;99.90;;;;;;4963233;28;20339;-71
2021/11/30 11:14:15;;;;;;;25.42;16.10;;;6.20;99.90;;;;;;4948547;28;20427;-71
2021/11/30 11:16:42;;;;;;;15.02;10.70;;;6.20;99.90;;;;;;4944529;28;20369;-73
2021/11/30 11:19:10;;;;;;;21.80;13.43;;;6.20;99.90;;;;;;4944888;28;20082;-71
2021/11/30 11:21:41;;;;;;;18.23;11.45;;;6.20;99.90;;;;;;4962208;28;20054;-71
2021/11/30 11:24:22;;;;;;;16.52;9.77;;;6.20;99.90;;;;;;4964603;28;20535;-71
2021/11/30 11:26:54;;;;;;;17.08;10.85;;;6.20;99.90;;;;;;4946085;28;20516;-73
2021/11/30 11:29:27;;;;;;;17.33;10.52;;;6.20;99.90;;;;;;4961401;28;20137;-72
2021/11/30 11:32:05;;;;;;;20.67;13.18;;;6.30;99.90;;;;;;4968717;28;20081;-72
2021/11/30 11:34:33;;;;;;;21.42;13.75;;;6.30;99.90;;;;;;4952021;28;20415;-72
2021/11/30 11:37:03;;;;;;;16.50;10.70;;;6.30;99.90;;;;;;4948009;28;20157;-71
2021/11/30 11:39:31;;;;;;;21.15;14.02;;;6.40;99.90;;;;;;4963765;28;20102;-72
2021/11/30 11:42:04;;;;;;;18.25;11.43;;;6.40;99.90;;;;;;4946713;28;20051;-72
2021/11/30 11:44:31;;;;;;;19.33;11.95;;;6.50;99.90;;;;;;4963317;28;20109;-74
2021/11/30 11:47:01;;;;;;;12.60;8.68;;;6.50;99.90;;;;;;4949181;28;20680;-73
2021/11/30 11:49:34;;;;;;;11.68;7.57;;;6.50;99.90;;;;;;4964953;28;20247;-72
2021/11/30 11:52:04;;;;;;;19.73;11.75;;;6.50;99.90;;;;;;4942466;28;20050;-71
2021/11/30 11:54:35;;;;;;;20.95;13.05;;;6.50;99.90;;;;;;4963486;28;20047;-72
2021/11/30 11:57:03;;;;;;;23.77;14.65;;;6.50;99.90;;;;;;4960868;28;20058;-71
2021/11/30 11:59:37;;;;;;;20.88;13.40;;;6.60;99.90;;;;;;4947573;28;20047;-68
2021/11/30 12:02:24;;;;;;;17.00;11.35;;;6.60;99.90;;;;;;4965562;28;20047;-73
2021/11/30 12:05:03;;;;;;;18.17;10.55;;;6.60;99.90;;;;;;4966173;28;20046;-72
2021/11/30 12:07:54;;;;;;;16.10;10.23;;;6.60;99.90;;;;;;4964692;28;20047;-72
2021/11/30 12:10:24;;;;;;;19.40;10.50;;;6.60;99.90;;;;;;4963338;28;20054;-72
2021/11/30 12:13:00;;;;;;;16.65;9.35;;;6.60;99.90;;;;;;4965916;28;20051;-71
2021/11/30 12:15:33;;;;;;;18.58;10.38;;;6.60;99.90;;;;;;4947546;28;20465;-73
2021/11/30 12:18:27;;;;;;;15.57;11.23;;;6.60;99.90;;;;;;4932257;28;20055;-71
2021/11/30 12:21:10;;;;;;;15.55;11.27;;;6.60;99.90;;;;;;4965762;28;20061;-71
2021/11/30 12:23:37;;;;;;;17.55;10.95;;;6.60;99.90;;;;;;4948174;28;20054;-71
2021/11/30 12:26:28;;;;;;;19.20;11.48;;;6.60;99.90;;;;;;4946609;28;20238;-73
2021/11/30 12:28:55;;;;;;;20.50;11.77;;;6.60;99.90;;;;;;4942842;28;20318;-71
2021/11/30 12:31:41;;;;;;;15.40;10.40;;;6.60;99.90;;;;;;4975496;28;20046;-73
2021/11/30 12:34:10;;;;;;;19.88;10.88;;;6.60;99.90;;;;;;4960916;28;20047;-72
2021/11/30 12:36:39;;;;;;;15.77;9.35;;;6.60;99.90;;;;;;4960939;28;20389;-74
2021/11/30 12:39:10;;;;;;;17.17;10.02;;;6.70;99.90;;;;;;4961975;28;20051;-72
2021/11/30 12:41:43;;;;;;;19.75;10.00;;;6.70;99.90;;;;;;4960708;28;20488;-72
2021/11/30 12:44:14;;;;;;;22.30;8.32;;;6.60;99.90;;;;;;4962946;28;20526;-70
2021/11/30 12:46:46;;;;;;;12.15;6.10;;;6.60;99.90;;;;;;4947771;28;20137;-70
2021/11/30 12:49:32;;;;;;;13.32;7.18;;;6.60;99.90;;;;;;4978256;28;20053;-70
2021/11/30 12:52:14;;;;;;;13.00;5.88;;;6.70;99.90;;;;;;4962097;28;20070;-70
2021/11/30 12:54:46;;;;;;;17.33;5.53;;;6.70;99.90;;;;;;4945697;28;20471;-71
2021/11/30 12:57:39;;;;;;;14.50;6.38;;;6.60;99.90;;;;;;4961970;28;20051;-72
2021/11/30 13:00:25;;;;;;;12.65;5.57;;;6.60;99.90;;;;;;4958364;28;20093;-72
2021/11/30 13:03:13;;;;;;;8.18;4.50;;;6.50;99.90;;;;;;4976026;28;20039;-73
2021/11/30 13:05:53;;;;;;;11.70;4.13;;;6.60;99.90;;;;;;4944789;28;20050;-73
2021/11/30 13:08:20;;;;;;;9.55;3.25;;;6.60;99.90;;;;;;4946241;28;20051;-71
2021/11/30 13:10:51;;;;;;;16.40;4.38;;;6.50;99.90;;;;;;4961069;28;20042;-72
2021/11/30 13:13:34;;;;;;;10.82;4.47;;;6.50;99.90;;;;;;4960926;28;20066;-73
2021/11/30 13:16:02;;;;;;;20.02;4.93;;;6.60;99.90;;;;;;4943919;28;20522;-72
2021/11/30 13:18:32;;;;;;;12.60;4.90;;;6.50;99.90;;;;;;4960653;28;20057;-72
2021/11/30 13:21:00;;;;;;;13.82;4.40;;;6.60;99.90;;;;;;4959875;28;20094;-73